Time;durP1;ratioP1;P1;durP2;ratioP2;P2;SDS_P1;SDS_P2;PMS_P1;PMS_P2;Temp;Humidity;BMP_temperature;BMP_pressure;BME280_temperature;BME280_humidity;BME280_pressure;Samples;Min_cycle;Max_cycle;Signal;HPM_P1;HPM_P2
2022/11/01 00:01:24;;;;;;;26.63;13.30;;;12.40;99.90;;;;;;5015127;28;20187;-87
2022/11/01 00:03:50;;;;;;;26.40;13.27;;;12.40;99.90;;;;;;5031920;28;20271;-86
2022/11/01 00:06:15;;;;;;;22.63;12.67;;;12.40;99.90;;;;;;5033026;28;20250;-87
2022/11/01 00:08:41;;;;;;;30.97;14.10;;;12.40;99.90;;;;;;5032777;28;20170;-90
2022/11/01 00:11:11;;;;;;;24.87;13.10;;;12.40;99.90;;;;;;5032781;28;20211;-87
2022/11/01 00:13:37;;;;;;;25.07;12.90;;;12.40;99.90;;;;;;5032850;28;20170;-87
2022/11/01 00:16:03;;;;;;;29.70;13.77;;;12.40;99.90;;;;;;5032768;28;20815;-86
2022/11/01 00:18:31;;;;;;;29.73;16.27;;;12.40;99.90;;;;;;5031330;28;20192;-86
2022/11/01 00:20:56;;;;;;;27.17;13.57;;;12.40;99.90;;;;;;5032594;28;20242;-87
2022/11/01 00:23:22;;;;;;;24.20;14.87;;;12.40;99.90;;;;;;5032312;28;20443;-90
2022/11/01 00:25:47;;;;;;;27.73;15.67;;;12.50;99.90;;;;;;5032699;28;20179;-87
2022/11/01 00:28:13;;;;;;;33.37;16.17;;;12.50;99.90;;;;;;5032609;28;20173;-88
2022/11/01 00:30:40;;;;;;;21.50;12.40;;;12.50;99.90;;;;;;5014987;28;20167;-87
2022/11/01 00:33:05;;;;;;;27.77;13.40;;;12.50;99.90;;;;;;5032453;28;20413;-87
2022/11/01 00:35:31;;;;;;;26.13;14.10;;;12.50;99.90;;;;;;5014636;28;20417;-87
2022/11/01 00:37:58;;;;;;;30.27;14.20;;;12.50;99.90;;;;;;5014502;28;20661;-87
2022/11/01 00:40:24;;;;;;;25.77;14.87;;;12.60;99.90;;;;;;5032400;28;20465;-86
2022/11/01 00:42:49;;;;;;;32.90;16.30;;;12.60;99.90;;;;;;5031406;28;20422;-86
2022/11/01 00:45:15;;;;;;;31.90;16.63;;;12.60;99.90;;;;;;5014848;28;20201;-88
2022/11/01 00:47:40;;;;;;;24.07;15.33;;;12.60;99.90;;;;;;5014619;28;20575;-85
2022/11/01 00:50:06;;;;;;;28.60;14.83;;;12.60;99.90;;;;;;5030994;28;20222;-87
2022/11/01 00:52:31;;;;;;;28.37;16.20;;;12.60;99.90;;;;;;5031863;28;20600;-86
2022/11/01 00:54:57;;;;;;;27.67;15.27;;;12.70;99.90;;;;;;5032337;28;20167;-88
2022/11/01 00:57:22;;;;;;;34.53;17.30;;;12.70;99.90;;;;;;5032455;28;20202;-87
2022/11/01 00:59:48;;;;;;;31.50;16.53;;;12.70;99.90;;;;;;5032361;28;20722;-88
2022/11/01 01:02:13;;;;;;;23.60;14.70;;;12.70;99.90;;;;;;5032496;28;20174;-87
2022/11/01 01:04:42;;;;;;;25.40;14.57;;;12.70;99.90;;;;;;5032269;28;20178;-87
2022/11/01 01:07:08;;;;;;;25.10;13.60;;;12.70;99.90;;;;;;5034519;28;20166;-86
2022/11/01 01:09:34;;;;;;;30.90;15.50;;;12.80;99.90;;;;;;5035812;28;20770;-89
2022/11/01 01:12:00;;;;;;;32.03;15.90;;;12.80;99.90;;;;;;5017985;28;20441;-87
2022/11/01 01:14:26;;;;;;;28.90;16.50;;;12.80;99.90;;;;;;5035604;28;20162;-87
2022/11/01 01:16:52;;;;;;;28.23;14.60;;;12.80;99.90;;;;;;5035800;28;20427;-89
2022/11/01 01:19:17;;;;;;;28.47;15.40;;;12.80;99.90;;;;;;5018268;28;20242;-88
2022/11/01 01:21:42;;;;;;;27.80;14.70;;;12.80;99.90;;;;;;5018161;28;20176;-91
2022/11/01 01:24:08;;;;;;;26.57;14.80;;;12.80;99.90;;;;;;5018407;28;20193;-87
2022/11/01 01:26:34;;;;;;;31.07;15.93;;;12.80;99.90;;;;;;5017867;28;20182;-87
2022/11/01 01:28:59;;;;;;;25.27;15.90;;;12.80;99.90;;;;;;5017704;28;20209;-86
2022/11/01 01:31:25;;;;;;;33.37;15.90;;;12.90;99.90;;;;;;5017779;28;20172;-86
2022/11/01 01:33:50;;;;;;;28.70;17.17;;;12.90;99.90;;;;;;5035216;28;20249;-87
2022/11/01 01:36:16;;;;;;;25.57;15.43;;;12.90;99.90;;;;;;5035219;28;20254;-88
2022/11/01 01:38:41;;;;;;;27.67;16.90;;;12.90;99.90;;;;;;5017212;28;20217;-86
2022/11/01 01:43:51;;;;;;;32.40;16.17;;;12.90;99.90;;;;;;5035614;28;20174;-88
2022/11/01 01:46:17;;;;;;;28.43;16.60;;;13.00;99.90;;;;;;5035274;28;20507;-87
2022/11/01 01:48:47;;;;;;;29.30;16.43;;;13.00;99.90;;;;;;5035230;28;20280;-88
2022/11/01 01:51:16;;;;;;;30.30;15.60;;;13.00;99.90;;;;;;5014273;28;20215;-87
2022/11/01 01:53:46;;;;;;;28.53;16.60;;;13.00;99.90;;;;;;5015237;28;20416;-89
2022/11/01 01:56:36;;;;;;;31.60;17.37;;;13.00;99.90;;;;;;5015688;28;20428;-88
2022/11/01 01:59:07;;;;;;;31.07;15.57;;;13.00;99.90;;;;;;5014407;28;20418;-86
2022/11/01 02:01:38;;;;;;;26.63;15.20;;;13.00;99.90;;;;;;5015063;28;20441;-89
2022/11/01 02:04:07;;;;;;;35.57;18.00;;;13.00;99.90;;;;;;5015104;28;20415;-86
2022/11/01 02:06:34;;;;;;;26.40;15.73;;;13.00;99.90;;;;;;5013257;28;20429;-87
2022/11/01 02:09:02;;;;;;;31.20;18.10;;;13.00;99.90;;;;;;5014986;28;20413;-87
2022/11/01 02:11:28;;;;;;;34.97;16.67;;;13.00;99.90;;;;;;5013814;28;20436;-87
2022/11/01 02:13:54;;;;;;;28.37;15.80;;;13.10;99.90;;;;;;5014762;28;20416;-86
2022/11/01 02:16:37;;;;;;;27.07;14.80;;;13.10;99.90;;;;;;5013548;28;20266;-85
2022/11/01 02:19:23;;;;;;;28.00;15.77;;;13.10;99.90;;;;;;5012588;28;20639;-87
2022/11/01 02:22:00;;;;;;;30.27;16.80;;;13.10;99.90;;;;;;5014623;28;20808;-84
2022/11/01 02:24:42;;;;;;;29.73;17.33;;;13.20;99.90;;;;;;5014750;28;20405;-86
2022/11/01 02:27:43;;;;;;;35.23;17.33;;;13.20;99.90;;;;;;5013530;28;20458;-87
2022/11/01 02:30:21;;;;;;;36.97;18.60;;;13.20;99.90;;;;;;5013534;28;20455;-90
2022/11/01 02:33:08;;;;;;;32.70;17.30;;;13.20;99.90;;;;;;5014620;28;20503;-86
2022/11/01 02:36:00;;;;;;;45.17;20.17;;;13.20;99.90;;;;;;5014608;28;20432;-86
2022/11/01 02:38:51;;;;;;;36.67;20.40;;;13.20;99.90;;;;;;5014205;28;20403;-87
2022/11/01 02:41:31;;;;;;;34.17;18.13;;;13.20;99.90;;;;;;5013088;28;20429;-85
2022/11/01 02:44:11;;;;;;;33.97;18.03;;;13.20;99.90;;;;;;5014375;28;20433;-85
2022/11/01 02:49:27;;;;;;;34.87;18.60;;;13.30;99.90;;;;;;5017158;28;20465;-85
2022/11/01 02:51:54;;;;;;;39.53;20.27;;;13.30;99.90;;;;;;5033535;28;20407;-86
2022/11/01 02:54:46;;;;;;;37.20;20.40;;;13.20;99.90;;;;;;5033735;28;20457;-85
2022/11/01 02:57:39;;;;;;;35.63;19.20;;;13.30;99.90;;;;;;5033869;28;20409;-86
2022/11/01 03:00:27;;;;;;;48.07;21.33;;;13.30;99.90;;;;;;5034557;28;20568;-86
2022/11/01 03:03:08;;;;;;;36.83;20.53;;;13.30;99.90;;;;;;5019183;28;20452;-85
2022/11/01 03:05:46;;;;;;;39.53;20.17;;;13.30;99.90;;;;;;5033463;28;20423;-85
2022/11/01 03:08:21;;;;;;;39.23;20.17;;;13.30;99.90;;;;;;5015434;28;20935;-85
2022/11/01 03:11:11;;;;;;;35.70;19.00;;;13.40;99.90;;;;;;5033478;28;20425;-87
2022/11/01 03:13:55;;;;;;;33.50;20.70;;;13.40;99.90;;;;;;5033460;28;20413;-86
2022/11/01 03:16:41;;;;;;;37.20;19.57;;;13.40;99.90;;;;;;5015747;28;20420;-86
2022/11/01 03:19:30;;;;;;;32.23;17.07;;;13.40;99.90;;;;;;5033343;28;20557;-86
2022/11/01 03:22:14;;;;;;;34.07;19.40;;;13.40;99.90;;;;;;5032961;28;20517;-85
2022/11/01 03:24:55;;;;;;;39.97;20.20;;;13.40;99.90;;;;;;5033213;28;20480;-86
2022/11/01 03:27:21;;;;;;;36.77;19.37;;;13.40;99.90;;;;;;5033196;28;20941;-85
2022/11/01 03:29:55;;;;;;;32.37;19.83;;;13.50;99.90;;;;;;5032814;28;20406;-86
2022/11/01 03:32:30;;;;;;;31.50;18.13;;;13.50;99.90;;;;;;5033252;28;20261;-85
2022/11/01 03:34:57;;;;;;;40.63;20.47;;;13.50;99.90;;;;;;5033098;28;20428;-85
2022/11/01 03:37:23;;;;;;;37.07;20.00;;;13.40;99.90;;;;;;5032683;28;20826;-86
2022/11/01 03:39:51;;;;;;;40.10;21.20;;;13.40;99.90;;;;;;5015326;28;20512;-86
2022/11/01 03:42:20;;;;;;;35.87;21.20;;;13.40;99.90;;;;;;5032926;28;20800;-85
2022/11/01 03:44:52;;;;;;;35.00;19.60;;;13.40;99.90;;;;;;5032982;28;20517;-86
2022/11/01 03:47:18;;;;;;;31.27;18.80;;;13.40;99.90;;;;;;5032904;28;20450;-86
2022/11/01 03:49:44;;;;;;;37.97;21.13;;;13.40;99.90;;;;;;5032717;28;21046;-86
2022/11/01 03:52:10;;;;;;;38.60;21.50;;;13.40;99.90;;;;;;5032556;28;20200;-86
2022/11/01 03:54:36;;;;;;;37.40;20.67;;;13.40;99.90;;;;;;5015154;28;20945;-86
2022/11/01 03:57:01;;;;;;;36.07;19.20;;;13.40;99.90;;;;;;5032927;28;20174;-86
2022/11/01 03:59:27;;;;;;;33.70;19.50;;;13.40;99.90;;;;;;5032513;28;20677;-85
2022/11/01 04:01:53;;;;;;;35.50;20.90;;;13.50;99.90;;;;;;5014925;28;20233;-85
2022/11/01 04:04:18;;;;;;;33.40;19.90;;;13.50;99.90;;;;;;5032791;28;20253;-85
2022/11/01 04:06:44;;;;;;;35.97;20.90;;;13.50;99.90;;;;;;5032338;28;20171;-85
2022/11/01 04:09:09;;;;;;;36.50;21.47;;;13.50;99.90;;;;;;5032709;28;20166;-85
2022/11/01 04:11:35;;;;;;;36.63;20.77;;;13.50;99.90;;;;;;5014996;28;20170;-87
2022/11/01 04:22:29;;;;;;;37.60;19.80;;;13.40;99.90;;;;;;4971356;28;20749;-85
2022/11/01 04:24:55;;;;;;;43.93;22.67;;;13.40;99.90;;;;;;5006435;28;20535;-84
2022/11/01 04:27:20;;;;;;;35.20;22.27;;;13.40;99.90;;;;;;5032586;28;20257;-86
2022/11/01 04:29:46;;;;;;;32.93;19.33;;;13.40;99.90;;;;;;5032614;28;20582;-84
2022/11/01 04:32:11;;;;;;;41.87;20.83;;;13.40;99.90;;;;;;5032541;28;20176;-85
2022/11/01 04:34:42;;;;;;;38.60;22.10;;;13.40;99.90;;;;;;5032648;28;20228;-86
2022/11/01 04:37:09;;;;;;;37.97;20.70;;;13.40;99.90;;;;;;5032301;28;20221;-85
2022/11/01 04:39:34;;;;;;;36.50;20.27;;;13.40;99.90;;;;;;5032398;28;20854;-85
2022/11/01 04:42:00;;;;;;;35.53;21.67;;;13.40;99.90;;;;;;5035092;28;20511;-87
2022/11/01 04:44:25;;;;;;;40.83;22.93;;;13.40;99.90;;;;;;5018653;28;20178;-84
2022/11/01 04:46:51;;;;;;;34.17;19.23;;;13.40;99.90;;;;;;5036254;28;20211;-84
2022/11/01 04:49:16;;;;;;;38.40;22.63;;;13.40;99.90;;;;;;5036038;28;20267;-85
2022/11/01 04:51:42;;;;;;;32.90;22.10;;;13.40;99.90;;;;;;5035918;28;20174;-85
2022/11/01 04:54:07;;;;;;;38.50;22.50;;;13.40;99.90;;;;;;5018533;28;20709;-87
2022/11/01 04:56:33;;;;;;;40.00;21.83;;;13.40;99.90;;;;;;5035996;28;20559;-85
2022/11/01 04:58:58;;;;;;;40.90;21.90;;;13.40;99.90;;;;;;5036017;28;20179;-87
2022/11/01 05:01:24;;;;;;;33.97;21.37;;;13.30;99.90;;;;;;5036037;28;20333;-86
2022/11/01 05:03:49;;;;;;;39.10;20.13;;;13.30;99.90;;;;;;5035976;28;20589;-86
2022/11/01 05:06:15;;;;;;;36.30;20.00;;;13.30;99.90;;;;;;5035682;28;20754;-85
2022/11/01 05:08:40;;;;;;;42.83;23.33;;;13.30;99.90;;;;;;5018203;28;20225;-86
2022/11/01 05:11:06;;;;;;;41.33;24.20;;;13.30;99.90;;;;;;5035765;28;20176;-86
2022/11/01 05:13:32;;;;;;;39.10;21.93;;;13.30;99.90;;;;;;5017895;28;20180;-87
2022/11/01 05:15:57;;;;;;;40.50;21.00;;;13.30;99.90;;;;;;5017947;28;20183;-87
2022/11/01 05:18:23;;;;;;;36.67;21.60;;;13.30;99.90;;;;;;5035481;28;20191;-85
2022/11/01 05:20:48;;;;;;;38.00;23.37;;;13.30;99.90;;;;;;5017494;28;20254;-86
2022/11/01 05:23:14;;;;;;;41.93;21.70;;;13.20;99.90;;;;;;5035746;28;20179;-86
2022/11/01 05:25:39;;;;;;;36.10;22.60;;;13.20;99.90;;;;;;5035631;28;20302;-87
2022/11/01 05:28:07;;;;;;;33.20;19.37;;;13.30;99.90;;;;;;5035446;28;20168;-86
2022/11/01 05:30:33;;;;;;;40.87;23.93;;;13.30;99.90;;;;;;5035333;28;20168;-85
2022/11/01 05:33:00;;;;;;;35.90;21.63;;;13.20;99.90;;;;;;5035363;28;20774;-85
2022/11/01 05:35:27;;;;;;;37.50;22.20;;;13.20;99.90;;;;;;5035485;28;20512;-85
2022/11/01 05:37:53;;;;;;;38.00;23.20;;;13.20;99.90;;;;;;5035060;28;20752;-86
2022/11/01 05:40:19;;;;;;;42.00;22.90;;;13.20;99.90;;;;;;5035195;28;20469;-86
2022/11/01 05:42:44;;;;;;;41.17;23.77;;;13.20;99.90;;;;;;5017608;28;20177;-86
2022/11/01 05:45:10;;;;;;;46.13;23.83;;;13.20;99.90;;;;;;5035251;28;20183;-86
2022/11/01 05:47:39;;;;;;;38.67;21.57;;;13.20;99.90;;;;;;5017563;28;20174;-86
2022/11/01 05:50:06;;;;;;;40.87;21.57;;;13.20;99.90;;;;;;5017187;28;20233;-86
2022/11/01 05:52:31;;;;;;;40.33;22.13;;;13.20;99.90;;;;;;5034486;28;20430;-86
2022/11/01 05:54:57;;;;;;;43.83;23.57;;;13.20;99.90;;;;;;5017435;28;20422;-87
2022/11/01 05:57:22;;;;;;;37.80;23.97;;;13.10;99.90;;;;;;5035289;28;20190;-86
2022/11/01 05:59:48;;;;;;;36.20;21.70;;;13.10;99.90;;;;;;5035216;28;20563;-86
2022/11/01 06:02:13;;;;;;;39.17;20.90;;;13.20;99.90;;;;;;5034999;28;20273;-86
2022/11/01 06:04:39;;;;;;;44.17;23.37;;;13.10;99.90;;;;;;5034943;28;20182;-87
2022/11/01 06:07:04;;;;;;;36.40;22.97;;;13.20;99.90;;;;;;5034638;28;20210;-86
2022/11/01 06:09:30;;;;;;;42.00;23.47;;;13.10;99.90;;;;;;5034945;28;20179;-85
2022/11/01 06:11:55;;;;;;;37.27;21.57;;;13.20;99.90;;;;;;5034885;28;20185;-86
2022/11/01 06:14:21;;;;;;;47.40;24.63;;;13.10;99.90;;;;;;5034955;28;20194;-86
2022/11/01 06:16:46;;;;;;;37.93;21.83;;;13.10;99.90;;;;;;5016911;28;20227;-86
2022/11/01 06:19:12;;;;;;;38.67;22.80;;;13.10;99.90;;;;;;5034771;28;20280;-86
2022/11/01 06:21:37;;;;;;;41.87;22.80;;;13.10;99.90;;;;;;5034728;28;20553;-87
2022/11/01 06:24:03;;;;;;;40.27;22.00;;;13.10;99.90;;;;;;5034501;28;20558;-84
2022/11/01 06:26:29;;;;;;;43.07;24.73;;;13.10;99.90;;;;;;5034840;28;20175;-85
2022/11/01 06:28:54;;;;;;;41.67;22.73;;;13.10;99.90;;;;;;5034631;28;20633;-85
2022/11/01 06:31:20;;;;;;;43.27;23.93;;;13.10;99.90;;;;;;5033702;28;20221;-86
2022/11/01 06:33:48;;;;;;;41.17;23.70;;;13.10;99.90;;;;;;5034744;28;20167;-86
2022/11/01 06:36:14;;;;;;;39.13;21.37;;;13.10;99.90;;;;;;5034455;28;20422;-85
2022/11/01 06:38:39;;;;;;;43.87;21.07;;;13.10;99.90;;;;;;5034573;28;20504;-86
2022/11/01 06:41:05;;;;;;;40.37;24.50;;;13.10;99.90;;;;;;5034206;28;20219;-84
2022/11/01 06:43:30;;;;;;;35.87;22.33;;;13.10;99.90;;;;;;5034502;28;20245;-85
2022/11/01 06:45:59;;;;;;;42.77;22.10;;;13.10;99.90;;;;;;5034373;28;20176;-84
2022/11/01 06:48:24;;;;;;;43.30;22.70;;;13.10;99.90;;;;;;5034349;28;20159;-83
2022/11/01 06:50:52;;;;;;;36.10;20.80;;;13.10;99.90;;;;;;5033733;28;20521;-84
2022/11/01 06:53:18;;;;;;;39.97;23.70;;;13.10;99.90;;;;;;5034209;28;20172;-84
2022/11/01 06:55:43;;;;;;;39.90;22.20;;;13.10;99.90;;;;;;5034580;28;20441;-84
2022/11/01 06:58:09;;;;;;;46.60;23.83;;;13.10;99.90;;;;;;5034132;28;20202;-84
2022/11/01 07:00:34;;;;;;;42.50;23.37;;;13.10;99.90;;;;;;5034007;28;20219;-84
2022/11/01 07:03:09;;;;;;;38.60;21.20;;;13.10;99.90;;;;;;5033825;28;20171;-84
2022/11/01 07:05:36;;;;;;;38.57;24.10;;;13.10;99.90;;;;;;5033322;28;20177;-84
2022/11/01 07:08:03;;;;;;;35.83;21.67;;;13.10;99.90;;;;;;5033792;28;20430;-84
2022/11/01 07:10:29;;;;;;;34.73;22.03;;;13.10;99.90;;;;;;5033737;28;20472;-83
2022/11/01 07:13:02;;;;;;;33.27;22.73;;;13.10;99.90;;;;;;5033873;28;20423;-83
2022/11/01 07:15:29;;;;;;;39.90;22.23;;;13.20;99.90;;;;;;5033832;28;20232;-84
2022/11/01 07:17:59;;;;;;;36.80;22.50;;;13.20;99.90;;;;;;5033647;28;20409;-84
2022/11/01 07:20:26;;;;;;;35.10;22.87;;;13.20;99.90;;;;;;5033522;28;20478;-84
2022/11/01 07:23:03;;;;;;;41.73;21.60;;;13.30;99.90;;;;;;5034791;28;20852;-84
2022/11/01 07:25:29;;;;;;;37.50;23.30;;;13.20;99.90;;;;;;5033622;28;20459;-84
2022/11/01 07:27:55;;;;;;;41.73;23.10;;;13.30;99.90;;;;;;5033487;28;20434;-83
2022/11/01 07:30:21;;;;;;;34.17;22.17;;;13.40;99.90;;;;;;5033538;28;20818;-83
2022/11/01 07:32:47;;;;;;;41.20;22.17;;;13.30;99.90;;;;;;5033607;28;20450;-84
2022/11/01 07:35:13;;;;;;;38.87;22.57;;;13.40;99.90;;;;;;5033425;28;20206;-83
2022/11/01 07:37:38;;;;;;;40.50;20.47;;;13.50;99.90;;;;;;5033478;28;20230;-83
2022/11/01 07:40:05;;;;;;;34.20;22.20;;;13.60;99.90;;;;;;5040131;28;20497;-84
2022/11/01 07:42:30;;;;;;;40.83;21.70;;;13.70;99.90;;;;;;5018593;28;20663;-84
2022/11/01 07:44:56;;;;;;;36.60;23.40;;;13.70;99.90;;;;;;5033644;28;20420;-84
2022/11/01 07:47:21;;;;;;;34.27;22.93;;;13.70;99.90;;;;;;5033500;28;20227;-85
2022/11/01 07:49:49;;;;;;;33.93;20.53;;;13.90;99.90;;;;;;5033219;28;20649;-84
2022/11/01 07:52:14;;;;;;;35.17;21.47;;;13.90;99.90;;;;;;5015154;28;20510;-85
2022/11/01 07:54:40;;;;;;;34.40;21.77;;;13.90;99.90;;;;;;5015473;28;20428;-84
2022/11/01 07:57:05;;;;;;;31.07;20.70;;;13.90;99.90;;;;;;5033272;28;20261;-84
2022/11/01 07:59:31;;;;;;;31.27;18.97;;;13.90;99.90;;;;;;5015457;28;20234;-85
2022/11/01 08:01:56;;;;;;;28.47;19.90;;;13.90;99.90;;;;;;5033287;28;20174;-84
2022/11/01 08:04:23;;;;;;;32.33;19.63;;;14.00;99.90;;;;;;5033272;28;20163;-84
2022/11/01 08:06:48;;;;;;;27.80;18.57;;;14.10;99.90;;;;;;5033019;28;20526;-86
2022/11/01 08:09:14;;;;;;;29.13;19.50;;;14.00;99.90;;;;;;5033057;28;20407;-85
2022/11/01 08:11:39;;;;;;;33.40;20.10;;;14.00;99.90;;;;;;5015471;28;20585;-85
2022/11/01 08:14:05;;;;;;;31.53;19.63;;;14.00;99.90;;;;;;5033195;28;20165;-84
2022/11/01 08:16:30;;;;;;;34.60;20.90;;;14.10;99.90;;;;;;5019096;28;20180;-85
2022/11/01 08:18:56;;;;;;;33.33;19.50;;;14.20;99.90;;;;;;5037079;28;20268;-84
2022/11/01 08:21:21;;;;;;;30.17;18.40;;;14.20;99.90;;;;;;5036870;28;20220;-85
2022/11/01 08:23:47;;;;;;;27.37;17.77;;;14.30;99.90;;;;;;5019437;28;20293;-84
2022/11/01 08:26:13;;;;;;;27.27;16.90;;;14.30;99.90;;;;;;5037109;28;20169;-85
2022/11/01 08:28:39;;;;;;;28.10;18.13;;;14.40;99.90;;;;;;5036945;28;20210;-84
2022/11/01 08:31:09;;;;;;;26.23;16.27;;;14.40;99.90;;;;;;5036895;28;20458;-83
2022/11/01 08:33:35;;;;;;;36.23;16.77;;;14.60;99.90;;;;;;5038070;28;20238;-84
2022/11/01 08:36:01;;;;;;;25.50;15.00;;;14.80;99.90;;;;;;5037444;28;20497;-84
2022/11/01 08:38:27;;;;;;;19.10;13.40;;;15.10;99.90;;;;;;5037602;28;20185;-85
2022/11/01 08:40:53;;;;;;;23.40;13.97;;;15.60;99.90;;;;;;5019529;28;20995;-85
2022/11/01 08:43:19;;;;;;;25.27;13.00;;;17.30;99.90;;;;;;5037467;28;20171;-84
2022/11/01 08:45:45;;;;;;;15.50;10.93;;;17.10;99.90;;;;;;5037361;28;20411;-84
2022/11/01 08:48:10;;;;;;;15.40;8.43;;;16.40;99.90;;;;;;5037475;28;20177;-84
2022/11/01 08:50:36;;;;;;;12.83;7.00;;;16.20;99.90;;;;;;5036915;28;20454;-83
2022/11/01 08:53:10;;;;;;;11.47;8.47;;;16.10;99.90;;;;;;5037264;28;20580;-83
2022/11/01 08:55:37;;;;;;;11.97;9.00;;;16.10;99.90;;;;;;5037259;28;20423;-84
2022/11/01 08:58:02;;;;;;;10.93;7.93;;;16.20;99.90;;;;;;5037212;28;20420;-84
2022/11/01 09:00:29;;;;;;;9.87;6.17;;;16.10;99.90;;;;;;5037092;28;20823;-86
2022/11/01 09:02:54;;;;;;;16.10;6.40;;;16.10;99.90;;;;;;5036825;28;20402;-85
2022/11/01 09:05:21;;;;;;;6.73;4.80;;;16.10;99.90;;;;;;5036627;28;20439;-85
2022/11/01 09:07:47;;;;;;;9.00;4.17;;;16.20;99.90;;;;;;5036514;28;20215;-85
2022/11/01 09:10:15;;;;;;;11.47;4.30;;;16.20;99.90;;;;;;5036776;28;20424;-86
2022/11/01 09:12:41;;;;;;;6.33;4.07;;;16.30;99.90;;;;;;5036407;28;20419;-86
2022/11/01 09:15:07;;;;;;;5.40;3.53;;;16.30;99.90;;;;;;5036091;28;20925;-85
2022/11/01 09:17:33;;;;;;;9.07;4.97;;;16.30;99.90;;;;;;5035948;28;20495;-84
2022/11/01 09:19:58;;;;;;;10.87;4.70;;;16.40;99.90;;;;;;5035785;28;20563;-84
2022/11/01 09:22:27;;;;;;;8.30;4.63;;;16.30;99.90;;;;;;5035576;28;20325;-85
2022/11/01 09:24:55;;;;;;;5.43;3.90;;;16.30;99.90;;;;;;5035807;28;20196;-84
2022/11/01 09:27:21;;;;;;;5.70;3.50;;;16.60;99.90;;;;;;5017546;28;20946;-84
2022/11/01 09:29:47;;;;;;;4.03;3.00;;;16.70;99.90;;;;;;5035939;28;20423;-84
2022/11/01 09:32:12;;;;;;;6.53;3.50;;;16.80;99.90;;;;;;5036050;28;20178;-83
2022/11/01 09:34:38;;;;;;;6.57;3.57;;;16.90;99.90;;;;;;5035987;28;20174;-84
2022/11/01 09:37:03;;;;;;;3.90;3.10;;;17.00;99.90;;;;;;5017700;28;20204;-83
2022/11/01 09:39:29;;;;;;;4.40;3.70;;;17.20;99.90;;;;;;5035949;28;20219;-83
2022/11/01 09:42:01;;;;;;;4.90;2.90;;;17.40;99.90;;;;;;5035600;28;20178;-84
2022/11/01 09:44:44;;;;;;;6.27;2.40;;;17.50;84.50;;;;;;5035572;28;20184;-84
2022/11/01 09:47:22;;;;;;;5.03;2.23;;;17.50;99.90;;;;;;5035659;28;20443;-85
2022/11/01 09:49:55;;;;;;;5.80;3.40;;;17.60;96.90;;;;;;5035175;28;20513;-84
2022/11/01 09:52:23;;;;;;;3.63;2.10;;;17.50;65.00;;;;;;5035168;28;20912;-84
2022/11/01 09:54:49;;;;;;;4.80;2.63;;;17.50;99.90;;;;;;5035460;28;20398;-84
2022/11/01 09:57:34;;;;;;;4.50;2.00;;;17.50;99.90;;;;;;5035319;28;20409;-85
2022/11/01 10:00:05;;;;;;;3.90;2.00;;;17.50;99.90;;;;;;5035230;28;20784;-84
2022/11/01 10:03:06;;;;;;;6.73;2.33;;;17.40;99.90;;;;;;5033961;28;20421;-84
2022/11/01 10:05:56;;;;;;;3.90;1.80;;;17.40;99.90;;;;;;5014991;28;20414;-84
2022/11/01 10:08:49;;;;;;;4.93;2.00;;;17.20;99.90;;;;;;5015207;28;20424;-83
2022/11/01 10:11:14;;;;;;;5.53;2.07;;;17.20;99.90;;;;;;5015301;28;20420;-84
2022/11/01 10:14:13;;;;;;;6.90;2.17;;;17.10;99.90;;;;;;5015226;28;20418;-84
2022/11/01 10:16:48;;;;;;;3.83;1.87;;;17.10;99.90;;;;;;5009105;28;20615;-84
2022/11/01 10:19:16;;;;;;;3.53;1.87;;;17.00;99.90;;;;;;5041733;28;20438;-84
2022/11/01 10:21:54;;;;;;;6.30;2.03;;;17.00;99.90;;;;;;5034197;28;20514;-84
2022/11/01 10:24:59;;;;;;;4.57;1.50;;;17.00;87.00;;;;;;5034538;28;20986;-84
2022/11/01 10:27:31;;;;;;;5.03;1.43;;;16.90;99.90;;;;;;4954081;28;21007;-83
2022/11/01 10:30:11;;;;;;;3.40;1.37;;;16.80;99.90;;;;;;5021516;28;20625;-84
2022/11/01 10:33:01;;;;;;;5.57;2.20;;;16.80;99.90;;;;;;5034430;28;20912;-84
2022/11/01 10:35:43;;;;;;;8.33;2.40;;;16.90;99.90;;;;;;5033965;28;20447;-84
2022/11/01 10:38:37;;;;;;;3.20;1.90;;;17.00;99.90;;;;;;5032728;28;20435;-83
2022/11/01 10:41:08;;;;;;;5.23;1.40;;;16.90;99.90;;;;;;5015515;28;20498;-84
2022/11/01 10:43:40;;;;;;;2.90;1.67;;;16.90;99.90;;;;;;5033964;28;20465;-84
2022/11/01 10:46:08;;;;;;;5.93;1.80;;;16.90;99.90;;;;;;5034070;28;20418;-85
2022/11/01 10:48:41;;;;;;;4.30;1.43;;;16.90;99.90;;;;;;5016425;28;20414;-84
2022/11/01 10:51:08;;;;;;;2.47;1.93;;;17.20;99.90;;;;;;5033434;28;20459;-86
2022/11/01 10:53:46;;;;;;;3.20;1.57;;;17.30;41.30;;;;;;5033942;28;20416;-83
2022/11/01 10:56:19;;;;;;;4.90;2.50;;;18.10;1.00;;;;;;5034200;28;20406;-84
2022/11/01 10:59:08;;;;;;;2.77;1.67;;;19.50;1.00;;;;;;5033847;28;20506;-85
2022/11/01 11:01:42;;;;;;;4.63;1.73;;;19.60;1.00;;;;;;5033115;28;20502;-84
2022/11/01 11:04:13;;;;;;;4.73;2.30;;;18.40;10.30;;;;;;5033671;28;20416;-84
2022/11/01 11:06:39;;;;;;;3.70;2.20;;;17.70;1.00;;;;;;5033534;28;20412;-82
2022/11/01 11:09:06;;;;;;;3.60;1.80;;;17.30;1.00;;;;;;5033721;28;20416;-83
2022/11/01 11:11:39;;;;;;;2.77;1.60;;;16.90;25.60;;;;;;5032503;28;20425;-83
2022/11/01 11:14:07;;;;;;;4.30;1.50;;;16.80;88.50;;;;;;5033732;28;20412;-84
2022/11/01 11:16:41;;;;;;;1.83;0.70;;;17.10;1.00;;;;;;5033894;28;20426;-83
2022/11/01 11:19:07;;;;;;;3.73;0.80;;;17.90;1.00;;;;;;5049141;28;20979;-83
2022/11/01 11:21:33;;;;;;;4.40;1.13;;;18.90;99.90;;;;;;5033552;28;20421;-83
2022/11/01 11:23:59;;;;;;;2.90;0.50;;;18.50;1.00;;;;;;5033693;28;20163;-84
2022/11/01 11:26:26;;;;;;;2.60;0.40;;;18.30;1.00;;;;;;5033802;28;20489;-85
2022/11/01 11:28:55;;;;;;;1.43;0.20;;;17.90;1.00;;;;;;5033499;28;20420;-85
2022/11/01 11:31:25;;;;;;;1.43;0.20;;;18.10;99.90;;;;;;5033862;28;20507;-83
2022/11/01 11:34:21;;;;;;;1.00;0.50;;;18.90;99.90;;;;;;5033675;28;20420;-86
2022/11/01 11:36:48;;;;;;;1.30;0.60;;;18.10;99.90;;;;;;5033595;28;20484;-85
2022/11/01 11:39:28;;;;;;;1.60;0.40;;;17.70;99.90;;;;;;5043787;28;20487;-85
2022/11/01 11:42:15;;;;;;;3.60;0.30;;;17.60;99.90;;;;;;5041103;28;20959;-86
2022/11/01 11:44:44;;;;;;;8.63;0.30;;;17.50;99.90;;;;;;5037984;28;20825;-86
2022/11/01 11:47:24;;;;;;;1.23;0.20;;;17.40;99.90;;;;;;5015843;28;20435;-84
2022/11/01 11:49:52;;;;;;;2.10;0.40;;;17.40;99.90;;;;;;5032950;28;20504;-87
2022/11/01 11:52:22;;;;;;;2.20;0.20;;;17.50;99.90;;;;;;5033599;28;20766;-84
2022/11/01 11:54:48;;;;;;;1.80;0.20;;;17.50;99.90;;;;;;5033296;28;20420;-85
2022/11/01 11:57:20;;;;;;;2.23;0.30;;;17.50;99.90;;;;;;5033570;28;20770;-83
2022/11/01 11:59:55;;;;;;;1.80;0.20;;;17.60;99.90;;;;;;5015420;28;20487;-85
2022/11/01 12:02:29;;;;;;;3.60;0.40;;;17.90;99.90;;;;;;5033565;28;20807;-83
2022/11/01 12:05:00;;;;;;;2.10;0.30;;;18.00;99.90;;;;;;5032786;28;20416;-82
2022/11/01 12:07:31;;;;;;;1.60;0.33;;;17.90;99.90;;;;;;5033130;28;20961;-84
2022/11/01 12:10:01;;;;;;;1.93;0.53;;;17.60;99.90;;;;;;5033003;28;20935;-83
2022/11/01 12:12:32;;;;;;;3.13;0.20;;;17.70;99.90;;;;;;5033005;28;20416;-84
2022/11/01 12:14:59;;;;;;;0.97;0.50;;;17.70;99.90;;;;;;5038352;28;20418;-83
2022/11/01 12:17:31;;;;;;;1.73;0.20;;;17.70;99.90;;;;;;5040802;28;20565;-82
2022/11/01 12:20:24;;;;;;;2.13;0.20;;;18.00;99.90;;;;;;5039811;28;20485;-87
2022/11/01 12:23:01;;;;;;;1.73;0.20;;;17.80;99.90;;;;;;5029961;28;20921;-83
2022/11/01 12:25:27;;;;;;;3.43;0.37;;;17.70;99.90;;;;;;5039149;28;20431;-81
2022/11/01 12:27:59;;;;;;;2.67;0.67;;;17.60;99.90;;;;;;5040632;28;20421;-85
2022/11/01 12:30:28;;;;;;;2.83;0.30;;;17.50;99.90;;;;;;5039370;28;20421;-83
2022/11/01 12:32:57;;;;;;;4.63;1.07;;;17.50;99.90;;;;;;5041595;28;20412;-88
2022/11/01 12:35:28;;;;;;;3.90;1.10;;;17.50;99.90;;;;;;5042682;28;20443;-84
2022/11/01 12:38:18;;;;;;;3.13;0.50;;;17.50;99.90;;;;;;5041297;28;20777;-85
2022/11/01 12:40:47;;;;;;;3.40;0.40;;;17.60;99.90;;;;;;5033139;28;20471;-82
2022/11/01 12:43:56;;;;;;;2.67;0.30;;;17.60;99.90;;;;;;5033345;28;20424;-81
2022/11/01 12:46:39;;;;;;;2.33;0.20;;;17.60;99.90;;;;;;4953285;28;20435;-90
2022/11/01 12:49:15;;;;;;;3.87;0.30;;;17.50;99.90;;;;;;4951827;28;20422;-86
2022/11/01 12:51:48;;;;;;;3.10;0.43;;;17.50;99.90;;;;;;5009845;28;20504;-86
2022/11/01 12:54:26;;;;;;;4.83;0.53;;;17.50;99.90;;;;;;5043424;28;20426;-85
2022/11/01 12:56:54;;;;;;;3.80;0.40;;;17.40;99.90;;;;;;5041079;28;20422;-83
2022/11/01 12:59:30;;;;;;;6.17;0.67;;;17.40;99.90;;;;;;5038944;28;20965;-85
2022/11/01 13:02:03;;;;;;;2.70;0.30;;;17.30;99.90;;;;;;5040827;28;20759;-84